SGCO/CIO METAR and TAF weather

Enter ICAO airport designator
Station Type Date Time Source
SGCO METAR 2022/11/30 09:00 UTC NOAA

SGCO 300900Z 00000KT CAVOK 20/19 Q1001


Station Type Date Time Source
SGCO Decoded METAR 2022/11/30 09:00 UTC NOAA

Concepcion, Paraguay (SGCO) 23-25S 057-18W 74M
Nov 30, 2022 - 04:00 AM EST / 2022.11.30 0900 UTC
Wind: Calm:0
Visibility: greater than 7 mile(s):0
Temperature: 68 F (20 C)
Dew Point: 66 F (19 C)
Relative Humidity: 93%
Pressure (altimeter): 29.56 in. Hg (1001 hPa)
ob: SGCO 300900Z 00000KT CAVOK 20/19 Q1001
cycle: 9

Station Type Date Time Source
SGCO TAF 2022/11/30 12:00 UTC NOAA

TAF SGCO 301000Z 3012/0112 14005KT CAVOK TX36/3019Z TN23/0110Z
BECMG 3015/3018 04008KT 9999 SCT033 FEW040TCU PROB40
TEMPO 3019/3023 7000 SHRA BKN030 FEW040TCU

Example: see airport list